Time,TemperatureF,DewpointF,PressureIn,WindDirection,WindDirectionDegrees,WindSpeedMPH,WindSpeedGustMPH,Humidity,HourlyPrecipIn,Conditions,Clouds,dailyrainin,SoftwareType,DateUTC
2013-04-03 00:00:00,30.1,9.8,30.09,NW,322,3.0,3.2,42,0.00,,CLR,0.00,VWS V14.00,2013-04-03 04:00:00,
2013-04-03 00:01:00,30.1,9.8,30.09,NW,316,3.4,4.3,42,0.00,,CLR,0.00,VWS V14.00,2013-04-03 04:01:00,
2013-04-03 00:06:00,29.5,9.8,30.09,WSW,240,3.0,3.8,43,0.00,,CLR,0.00,VWS V14.00,2013-04-03 04:06:00,
2013-04-03 00:11:00,29.2,9.5,30.09,NW,325,5.4,5.9,43,0.00,,CLR,0.00,VWS V14.00,2013-04-03 04:11:00,
2013-04-03 00:16:00,29.0,9.8,30.09,NNW,343,0.0,3.2,44,0.00,,CLR,0.00,VWS V14.00,2013-04-03 04:16:00,
2013-04-03 00:21:00,28.8,9.7,30.09,SSW,205,0.0,0.0,44,0.00,,CLR,0.00,VWS V14.00,2013-04-03 04:21:00,
2013-04-03 00:26:00,28.6,9.5,30.09,SSW,207,0.0,2.7,44,0.00,,CLR,0.00,VWS V14.00,2013-04-03 04:26:00,
2013-04-03 00:31:00,28.6,9.5,30.09,South,176,0.0,0.0,44,0.00,,CLR,0.00,VWS V14.00,2013-04-03 04:31:00,
2013-04-03 00:37:00,28.6,9.5,30.12,South,176,0.0,0.0,44,0.00,,CLR,0.00,VWS V14.00,2013-04-03 04:37:00,
2013-04-03 00:42:00,28.4,9.8,30.12,South,176,0.0,0.0,45,0.00,,CLR,0.00,VWS V14.00,2013-04-03 04:42:00,
2013-04-03 00:47:00,28.4,9.8,30.12,South,176,0.0,0.0,45,0.00,,CLR,0.00,VWS V14.00,2013-04-03 04:47:00,
2013-04-03 00:52:00,28.1,9.5,30.12,South,176,3.0,3.2,45,0.00,,CLR,0.00,VWS V14.00,2013-04-03 04:52:00,
2013-04-03 00:57:00,28.1,9.5,30.12,SSE,151,3.4,4.8,45,0.00,,CLR,0.00,VWS V14.00,2013-04-03 04:57:00,
2013-04-03 01:02:00,27.7,9.6,30.12,NNE,22,0.0,0.0,46,0.00,,CLR,0.00,VWS V14.00,2013-04-03 05:02:00,
2013-04-03 01:07:00,27.5,9.9,30.12,ENE,74,3.0,3.2,47,0.00,,CLR,0.00,VWS V14.00,2013-04-03 05:07:00,
2013-04-03 01:12:00,27.7,10.6,30.12,NNW,328,2.5,3.2,48,0.00,,CLR,0.00,VWS V14.00,2013-04-03 05:12:00,
2013-04-03 01:17:00,27.7,10.6,30.12,NNW,336,2.5,2.7,48,0.00,,CLR,0.00,VWS V14.00,2013-04-03 05:17:00,
2013-04-03 01:22:00,27.5,10.9,30.12,NNW,329,0.0,3.8,49,0.00,,CLR,0.00,VWS V14.00,2013-04-03 05:22:00,
2013-04-03 01:27:00,27.7,10.6,30.12,North,357,0.0,3.8,48,0.00,,CLR,0.00,VWS V14.00,2013-04-03 05:27:00,
2013-04-03 01:32:00,27.3,10.7,30.12,ENE,69,2.5,3.8,49,0.00,,CLR,0.00,VWS V14.00,2013-04-03 05:32:00,
2013-04-03 01:37:00,27.1,11.0,30.12,NE,56,3.0,3.2,50,0.00,,CLR,0.00,VWS V14.00,2013-04-03 05:37:00,
2013-04-03 01:42:00,27.3,11.1,30.12,NE,55,0.0,0.0,50,0.00,,CLR,0.00,VWS V14.00,2013-04-03 05:42:00,
2013-04-03 01:47:00,27.5,11.3,30.12,NW,310,3.0,3.2,50,0.00,,CLR,0.00,VWS V14.00,2013-04-03 05:47:00,
2013-04-03 01:52:00,27.5,11.3,30.12,NW,307,0.0,0.0,50,0.00,,CLR,0.00,VWS V14.00,2013-04-03 05:52:00,
2013-04-03 01:58:00,27.7,10.6,30.12,NW,307,0.0,0.0,48,0.00,,CLR,0.00,VWS V14.00,2013-04-03 05:58:00,
2013-04-03 02:03:00,28.1,10.9,30.12,NW,307,0.0,0.0,48,0.00,,CLR,0.00,VWS V14.00,2013-04-03 06:03:00,
2013-04-03 02:08:00,28.2,10.6,30.12,NW,307,2.5,3.2,47,0.00,,CLR,0.00,VWS V14.00,2013-04-03 06:08:00,
2013-04-03 02:13:00,27.7,10.6,30.12,NNW,344,0.0,2.7,48,0.00,,CLR,0.00,VWS V14.00,2013-04-03 06:13:00,
2013-04-03 02:18:00,27.5,10.4,30.12,NNW,344,0.0,2.7,48,0.00,,CLR,0.00,VWS V14.00,2013-04-03 06:18:00,
2013-04-03 02:23:00,27.7,10.6,30.12,NNW,344,0.0,0.0,48,0.00,,CLR,0.00,VWS V14.00,2013-04-03 06:23:00,
2013-04-03 02:28:00,28.1,10.4,30.12,NNE,26,0.0,0.0,47,0.00,,CLR,0.00,VWS V14.00,2013-04-03 06:28:00,
2013-04-03 02:33:00,27.9,10.3,30.12,NNE,27,0.0,0.0,47,0.00,,CLR,0.00,VWS V14.00,2013-04-03 06:33:00,
2013-04-03 02:38:00,28.1,10.4,30.12,NNE,27,2.5,2.7,47,0.00,,CLR,0.00,VWS V14.00,2013-04-03 06:38:00,
2013-04-03 02:43:00,28.1,10.4,30.12,NNE,30,0.0,0.0,47,0.00,,CLR,0.00,VWS V14.00,2013-04-03 06:43:00,
2013-04-03 02:48:00,27.9,10.3,30.12,NW,310,3.4,3.8,47,0.00,,CLR,0.00,VWS V14.00,2013-04-03 06:48:00,
2013-04-03 02:53:00,27.3,10.2,30.12,South,185,0.0,3.2,48,0.00,,CLR,0.00,VWS V14.00,2013-04-03 06:53:00,
2013-04-03 02:58:00,27.3,10.2,30.12,NW,304,3.0,4.3,48,0.00,,CLR,0.00,VWS V14.00,2013-04-03 06:58:00,
2013-04-03 03:03:00,27.3,10.2,30.12,WNW,299,0.0,0.0,48,0.00,,CLR,0.00,VWS V14.00,2013-04-03 07:03:00,
2013-04-03 03:08:00,27.3,10.2,30.12,WNW,299,0.0,0.0,48,0.00,,CLR,0.00,VWS V14.00,2013-04-03 07:08:00,
2013-04-03 03:13:00,27.1,10.1,30.12,NNW,341,0.0,0.0,48,0.00,,CLR,0.00,VWS V14.00,2013-04-03 07:13:00,
2013-04-03 03:18:00,27.5,10.4,30.15,NW,315,3.0,3.2,48,0.00,,CLR,0.00,VWS V14.00,2013-04-03 07:18:00,
2013-04-03 03:24:00,27.5,10.4,30.15,NW,316,0.0,0.0,48,0.00,,CLR,0.00,VWS V14.00,2013-04-03 07:24:00,
2013-04-03 03:28:00,27.1,10.1,30.15,NW,317,0.0,2.7,48,0.00,,CLR,0.00,VWS V14.00,2013-04-03 07:28:00,
2013-04-03 03:34:00,27.1,10.1,30.15,NNW,346,0.0,0.0,48,0.00,,CLR,0.00,VWS V14.00,2013-04-03 07:34:00,
2013-04-03 03:39:00,27.1,10.1,30.15,NNW,346,2.5,2.7,48,0.00,,CLR,0.00,VWS V14.00,2013-04-03 07:39:00,
2013-04-03 03:44:00,27.0,9.9,30.15,NNW,346,0.0,0.0,48,0.00,,CLR,0.00,VWS V14.00,2013-04-03 07:44:00,
2013-04-03 03:49:00,26.8,9.7,30.15,East,95,0.0,0.0,48,0.00,,CLR,0.00,VWS V14.00,2013-04-03 07:49:00,
2013-04-03 03:54:00,27.1,9.6,30.15,ENE,77,3.4,3.8,47,0.00,,CLR,0.00,VWS V14.00,2013-04-03 07:54:00,
2013-04-03 03:59:00,26.0,9.5,30.15,North,353,3.0,3.2,49,0.00,,CLR,0.00,VWS V14.00,2013-04-03 07:59:00,
2013-04-03 04:04:00,26.6,9.6,30.15,ENE,74,3.0,4.3,48,0.00,,CLR,0.00,VWS V14.00,2013-04-03 08:04:00,
2013-04-03 04:09:00,26.4,9.8,30.15,SSE,150,3.0,3.8,49,0.00,,CLR,0.00,VWS V14.00,2013-04-03 08:09:00,
2013-04-03 04:14:00,26.6,9.6,30.15,SSE,152,3.0,3.2,48,0.00,,CLR,0.00,VWS V14.00,2013-04-03 08:14:00,
2013-04-03 04:19:00,26.6,9.6,30.15,SSE,152,0.0,0.0,48,0.00,,CLR,0.00,VWS V14.00,2013-04-03 08:19:00,
2013-04-03 04:24:00,25.1,9.1,30.15,North,357,2.5,3.2,50,0.00,,CLR,0.00,VWS V14.00,2013-04-03 08:24:00,
2013-04-03 04:29:00,25.5,9.9,30.15,North,0,3.0,3.2,51,0.00,,CLR,0.00,VWS V14.00,2013-04-03 08:29:00,
2013-04-03 04:34:00,25.5,9.9,30.15,North,353,0.0,2.7,51,0.00,,CLR,0.00,VWS V14.00,2013-04-03 08:34:00,
2013-04-03 04:39:00,25.5,9.9,30.15,North,357,3.0,3.2,51,0.00,,CLR,0.00,VWS V14.00,2013-04-03 08:39:00,
2013-04-03 04:44:00,25.8,9.8,30.15,NE,43,2.5,2.7,50,0.00,,CLR,0.00,VWS V14.00,2013-04-03 08:44:00,
2013-04-03 04:49:00,25.1,10.0,30.15,NNE,18,0.0,2.7,52,0.00,,CLR,0.00,VWS V14.00,2013-04-03 08:49:00,
2013-04-03 04:55:00,25.3,10.1,30.15,NNE,18,2.5,2.7,52,0.00,,CLR,0.00,VWS V14.00,2013-04-03 08:55:00,
2013-04-03 05:00:00,25.3,9.7,30.15,NE,39,0.0,2.7,51,0.00,,CLR,0.00,VWS V14.00,2013-04-03 09:00:00,
2013-04-03 05:05:00,25.1,10.0,30.15,North,10,0.0,0.0,52,0.00,,CLR,0.00,VWS V14.00,2013-04-03 09:05:00,
2013-04-03 05:10:00,25.3,10.1,30.15,North,10,0.0,2.7,52,0.00,,CLR,0.00,VWS V14.00,2013-04-03 09:10:00,
2013-04-03 05:15:00,25.3,10.1,30.15,ENE,66,3.0,3.2,52,0.00,,CLR,0.00,VWS V14.00,2013-04-03 09:15:00,
2013-04-03 05:20:00,25.1,10.0,30.15,ENE,65,0.0,2.7,52,0.00,,CLR,0.00,VWS V14.00,2013-04-03 09:20:00,
2013-04-03 05:25:00,25.1,10.0,30.15,ENE,65,0.0,0.0,52,0.00,,CLR,0.00,VWS V14.00,2013-04-03 09:25:00,
2013-04-03 05:30:00,24.9,9.8,30.15,ENE,66,0.0,0.0,52,0.00,,CLR,0.00,VWS V14.00,2013-04-03 09:30:00,
2013-04-03 05:35:00,24.9,9.8,30.15,ENE,66,2.5,2.7,52,0.00,,CLR,0.00,VWS V14.00,2013-04-03 09:35:00,
2013-04-03 05:40:00,24.9,9.8,30.15,ENE,66,0.0,0.0,52,0.00,,CLR,0.00,VWS V14.00,2013-04-03 09:40:00,
2013-04-03 05:45:00,24.9,9.8,30.15,ENE,66,3.0,3.2,52,0.00,,CLR,0.00,VWS V14.00,2013-04-03 09:45:00,
2013-04-03 05:51:00,24.7,9.6,30.15,ENE,65,0.0,0.0,52,0.00,,CLR,0.00,VWS V14.00,2013-04-03 09:51:00,
2013-04-03 05:56:00,24.5,9.9,30.15,ENE,66,0.0,0.0,53,0.00,,CLR,0.00,VWS V14.00,2013-04-03 09:56:00,
2013-04-03 06:01:00,24.4,9.7,30.15,ENE,65,0.0,0.0,53,0.00,,CLR,0.00,VWS V14.00,2013-04-03 10:01:00,
2013-04-03 06:06:00,24.2,9.5,30.15,ENE,65,2.5,3.2,53,0.00,,CLR,0.00,VWS V14.00,2013-04-03 10:06:00,
2013-04-03 06:11:00,24.2,9.9,30.15,ENE,66,2.5,2.7,54,0.00,,CLR,0.00,VWS V14.00,2013-04-03 10:11:00,
2013-04-03 06:16:00,24.0,9.8,30.15,ENE,69,3.0,3.2,54,0.00,,CLR,0.00,VWS V14.00,2013-04-03 10:16:00,
2013-04-03 06:21:00,23.8,10.0,30.15,North,10,2.5,3.8,55,0.00,,CLR,0.00,VWS V14.00,2013-04-03 10:21:00,
2013-04-03 06:27:00,23.8,10.0,30.15,North,10,0.0,2.7,55,0.00,,CLR,0.00,VWS V14.00,2013-04-03 10:27:00,
2013-04-03 06:32:00,23.6,9.8,30.15,NNE,22,2.5,2.7,55,0.00,,CLR,0.00,VWS V14.00,2013-04-03 10:32:00,
2013-04-03 06:37:00,23.4,9.7,30.15,NNE,24,0.0,0.0,55,0.00,,CLR,0.00,VWS V14.00,2013-04-03 10:37:00,
2013-04-03 06:42:00,23.6,9.8,30.15,NNE,24,0.0,0.0,55,0.00,,CLR,0.00,VWS V14.00,2013-04-03 10:42:00,
2013-04-03 06:47:00,23.4,9.7,30.15,NNE,24,0.0,0.0,55,0.00,,CLR,0.00,VWS V14.00,2013-04-03 10:47:00,
2013-04-03 06:52:00,23.2,9.5,30.15,NNE,24,0.0,0.0,55,0.00,,CLR,0.00,VWS V14.00,2013-04-03 10:52:00,
2013-04-03 06:57:00,23.2,9.9,30.15,NNE,29,2.5,2.7,56,0.00,,CLR,0.00,VWS V14.00,2013-04-03 10:57:00,
2013-04-03 07:02:00,23.2,9.9,30.15,ENE,71,3.4,3.8,56,0.00,,CLR,0.00,VWS V14.00,2013-04-03 11:02:00,
2013-04-03 07:07:00,23.1,9.7,30.15,NE,39,3.0,3.2,56,0.00,,CLR,0.00,VWS V14.00,2013-04-03 11:07:00,
2013-04-03 07:12:00,22.9,9.9,30.15,NNE,30,0.0,2.7,57,0.00,,CLR,0.00,VWS V14.00,2013-04-03 11:12:00,
2013-04-03 07:17:00,23.1,10.1,30.15,NE,49,0.0,3.2,57,0.00,,CLR,0.00,VWS V14.00,2013-04-03 11:17:00,
2013-04-03 07:22:00,23.1,10.5,30.15,NE,49,0.0,0.0,58,0.00,,CLR,0.00,VWS V14.00,2013-04-03 11:22:00,
2013-04-03 07:27:00,23.1,10.5,30.15,NE,49,2.5,2.7,58,0.00,,CLR,0.00,VWS V14.00,2013-04-03 11:27:00,
2013-04-03 07:32:00,22.9,10.3,30.15,NE,49,0.0,0.0,58,0.00,,CLR,0.00,VWS V14.00,2013-04-03 11:32:00,
2013-04-03 07:37:00,22.9,10.3,30.15,NE,49,0.0,0.0,58,0.00,,CLR,0.00,VWS V14.00,2013-04-03 11:37:00,
2013-04-03 07:42:00,23.1,10.5,30.15,East,92,2.5,3.2,58,0.00,,CLR,0.00,VWS V14.00,2013-04-03 11:42:00,
2013-04-03 07:47:00,23.1,10.5,30.18,East,92,0.0,0.0,58,0.00,,CLR,0.00,VWS V14.00,2013-04-03 11:47:00,
2013-04-03 07:52:00,23.1,10.5,30.18,East,86,0.0,2.7,58,0.00,,CLR,0.00,VWS V14.00,2013-04-03 11:52:00,
2013-04-03 07:57:00,23.1,11.6,30.18,ENE,77,0.0,0.0,61,0.00,,CLR,0.00,VWS V14.00,2013-04-03 11:57:00,
2013-04-03 08:03:00,23.1,11.3,30.18,ENE,77,2.5,2.7,60,0.00,,CLR,0.00,VWS V14.00,2013-04-03 12:03:00,
2013-04-03 08:08:00,23.2,11.4,30.18,ESE,118,3.0,3.2,60,0.00,,CLR,0.00,VWS V14.00,2013-04-03 12:08:00,
2013-04-03 08:13:00,23.6,12.5,30.18,ESE,122,3.4,3.8,62,0.00,,CLR,0.00,VWS V14.00,2013-04-03 12:13:00,
2013-04-03 08:18:00,23.8,13.4,30.18,South,169,0.0,0.0,64,0.00,,CLR,0.00,VWS V14.00,2013-04-03 12:18:00,
2013-04-03 08:23:00,24.4,14.3,30.18,South,169,3.4,3.8,65,0.00,,CLR,0.00,VWS V14.00,2013-04-03 12:23:00,
2013-04-03 08:28:00,25.1,15.0,30.18,SE,139,3.0,3.8,65,0.00,,CLR,0.00,VWS V14.00,2013-04-03 12:28:00,
2013-04-03 08:33:00,25.7,15.2,30.21,South,175,4.4,4.8,64,0.00,,CLR,0.00,VWS V14.00,2013-04-03 12:33:00,
2013-04-03 08:38:00,26.2,14.6,30.21,South,174,2.5,3.8,61,0.00,,CLR,0.00,VWS V14.00,2013-04-03 12:38:00,
2013-04-03 08:43:00,26.8,13.6,30.21,SSW,196,2.5,2.7,57,0.00,,CLR,0.00,VWS V14.00,2013-04-03 12:43:00,
2013-04-03 08:48:00,27.0,13.4,30.18,NW,311,4.4,6.4,56,0.00,,CLR,0.00,VWS V14.00,2013-04-03 12:48:00,
2013-04-03 08:53:00,27.3,14.5,30.18,NW,309,0.0,0.0,58,0.00,,CLR,0.00,VWS V14.00,2013-04-03 12:53:00,
2013-04-03 08:58:00,27.7,14.9,30.18,NNW,341,4.4,4.8,58,0.00,,CLR,0.00,VWS V14.00,2013-04-03 12:58:00,
2013-04-03 09:03:00,27.9,15.8,30.21,NNW,332,2.5,2.7,60,0.00,,CLR,0.00,VWS V14.00,2013-04-03 13:03:00,
2013-04-03 09:08:00,28.8,14.3,30.21,SSW,209,5.9,7.0,54,0.00,,CLR,0.00,VWS V14.00,2013-04-03 13:08:00,
2013-04-03 09:13:00,29.5,14.1,30.21,South,187,3.0,6.4,52,0.00,,CLR,0.00,VWS V14.00,2013-04-03 13:13:00,
2013-04-03 09:18:00,30.1,14.2,30.21,SSW,198,5.9,7.5,51,0.00,,CLR,0.00,VWS V14.00,2013-04-03 13:18:00,
2013-04-03 09:23:00,30.5,13.6,30.21,SSW,206,6.9,7.5,49,0.00,,CLR,0.00,VWS V14.00,2013-04-03 13:23:00,
2013-04-03 09:29:00,30.9,13.0,30.21,South,184,4.4,9.1,47,0.00,,CLR,0.00,VWS V14.00,2013-04-03 13:29:00,
2013-04-03 09:34:00,31.2,12.9,30.21,SSW,198,3.4,7.5,46,0.00,,CLR,0.00,VWS V14.00,2013-04-03 13:34:00,
2013-04-03 09:39:00,31.8,13.4,30.21,South,183,3.4,5.4,46,0.00,,CLR,0.00,VWS V14.00,2013-04-03 13:39:00,
2013-04-03 09:44:00,32.2,13.2,30.21,SW,223,3.0,4.3,45,0.00,,CLR,0.00,VWS V14.00,2013-04-03 13:44:00,
2013-04-03 09:49:00,32.5,13.6,30.21,SSW,197,3.4,3.8,45,0.00,,CLR,0.00,VWS V14.00,2013-04-03 13:49:00,
2013-04-03 09:54:00,33.1,13.6,30.21,SSW,203,4.4,5.9,44,0.00,,CLR,0.00,VWS V14.00,2013-04-03 13:54:00,
2013-04-03 09:59:00,33.4,13.9,30.21,WNW,285,5.4,7.0,44,0.00,,CLR,0.00,VWS V14.00,2013-04-03 13:59:00,
2013-04-03 10:04:00,33.4,13.4,30.21,NW,307,6.4,7.0,43,0.00,,CLR,0.00,VWS V14.00,2013-04-03 14:04:00,
2013-04-03 10:09:00,34.0,13.9,30.21,WSW,241,5.9,7.0,43,0.00,,CLR,0.00,VWS V14.00,2013-04-03 14:09:00,
2013-04-03 10:14:00,34.4,13.7,30.21,West,267,5.4,7.0,42,0.00,,CLR,0.00,VWS V14.00,2013-04-03 14:14:00,
2013-04-03 10:19:00,34.7,13.5,30.21,NW,322,12.1,13.2,41,0.00,,CLR,0.00,VWS V14.00,2013-04-03 14:19:00,
2013-04-03 10:24:00,35.1,13.8,30.21,WNW,292,9.1,12.6,41,0.00,,CLR,0.00,VWS V14.00,2013-04-03 14:24:00,
2013-04-03 10:29:00,35.1,13.8,30.21,NNW,328,13.5,19.1,41,0.00,,CLR,0.00,VWS V14.00,2013-04-03 14:29:00,
2013-04-03 10:34:00,35.7,13.7,30.21,WNW,295,12.1,15.3,40,0.00,,CLR,0.00,VWS V14.00,2013-04-03 14:34:00,
2013-04-03 10:39:00,35.8,13.9,30.21,NW,309,4.4,13.2,40,0.00,,CLR,0.00,VWS V14.00,2013-04-03 14:39:00,
2013-04-03 10:44:00,36.2,14.2,30.21,WNW,291,13.0,14.8,40,0.00,,CLR,0.00,VWS V14.00,2013-04-03 14:44:00,
2013-04-03 10:49:00,36.6,14.6,30.21,NW,313,9.1,12.6,40,0.00,,CLR,0.00,VWS V14.00,2013-04-03 14:49:00,
2013-04-03 10:54:00,36.8,14.2,30.21,NNW,332,16.5,18.0,39,0.00,,CLR,0.00,VWS V14.00,2013-04-03 14:54:00,
2013-04-03 10:59:00,37.3,14.7,30.21,NW,316,10.1,13.2,39,0.00,,CLR,0.00,VWS V14.00,2013-04-03 14:59:00,
2013-04-03 11:04:00,37.9,15.2,30.21,NW,313,9.6,14.8,39,0.00,,CLR,0.00,VWS V14.00,2013-04-03 15:04:00,
2013-04-03 11:10:00,37.9,15.2,30.21,WSW,240,11.1,13.2,39,0.00,,CLR,0.00,VWS V14.00,2013-04-03 15:10:00,
2013-04-03 11:15:00,38.5,15.1,30.21,WNW,287,14.0,15.3,38,0.00,,CLR,0.00,VWS V14.00,2013-04-03 15:15:00,
2013-04-03 11:20:00,38.6,15.2,30.21,NNW,329,9.6,10.5,38,0.00,,CLR,0.00,VWS V14.00,2013-04-03 15:20:00,
2013-04-03 11:25:00,39.2,15.1,30.21,NW,307,14.0,15.3,37,0.00,,CLR,0.00,VWS V14.00,2013-04-03 15:25:00,
2013-04-03 11:30:00,38.6,14.0,30.21,NW,307,9.1,10.5,36,0.00,,CLR,0.00,VWS V14.00,2013-04-03 15:30:00,
2013-04-03 11:35:00,39.0,13.7,30.21,West,267,4.4,9.7,35,0.00,,CLR,0.00,VWS V14.00,2013-04-03 15:35:00,
2013-04-03 11:40:00,39.2,13.9,30.21,NW,313,14.0,15.3,35,0.00,,CLR,0.00,VWS V14.00,2013-04-03 15:40:00,
2013-04-03 11:45:00,39.6,14.2,30.21,NW,312,12.1,18.0,35,0.00,,CLR,0.00,VWS V14.00,2013-04-03 15:45:00,
2013-04-03 11:50:00,39.8,15.0,30.21,NNW,346,5.9,9.1,36,0.00,,CLR,0.00,VWS V14.00,2013-04-03 15:50:00,
2013-04-03 11:55:00,40.3,14.8,30.21,NW,305,6.9,12.1,35,0.00,,CLR,0.00,VWS V14.00,2013-04-03 15:55:00,
2013-04-03 12:00:00,40.1,14.7,30.21,NNW,327,14.0,20.4,35,0.00,,CLR,0.00,VWS V14.00,2013-04-03 16:00:00,
2013-04-03 12:05:00,40.3,14.8,30.21,WNW,294,11.1,15.8,35,0.00,,CLR,0.00,VWS V14.00,2013-04-03 16:05:00,
2013-04-03 12:10:00,41.0,16.1,30.21,NW,316,8.4,13.2,36,0.00,,CLR,0.00,VWS V14.00,2013-04-03 16:10:00,
2013-04-03 12:15:00,40.9,16.0,30.21,West,272,11.1,15.8,36,0.00,,CLR,0.00,VWS V14.00,2013-04-03 16:15:00,
2013-04-03 12:20:00,41.2,16.3,30.21,WNW,297,14.0,18.5,36,0.00,,CLR,0.00,VWS V14.00,2013-04-03 16:20:00,
2013-04-03 12:25:00,41.2,16.3,30.21,WNW,295,8.9,12.1,36,0.00,,CLR,0.00,VWS V14.00,2013-04-03 16:25:00,
2013-04-03 12:30:00,42.0,16.3,30.21,NNW,329,3.0,10.5,35,0.00,,CLR,0.00,VWS V14.00,2013-04-03 16:30:00,
2013-04-03 12:35:00,42.3,16.6,30.21,NW,324,11.6,13.2,35,0.00,,CLR,0.00,VWS V14.00,2013-04-03 16:35:00,
2013-04-03 12:40:00,41.6,14.6,30.21,NNW,329,7.9,16.9,33,0.00,,CLR,0.00,VWS V14.00,2013-04-03 16:40:00,
2013-04-03 12:45:00,42.3,16.0,30.21,NW,309,14.5,16.9,34,0.00,,CLR,0.00,VWS V14.00,2013-04-03 16:45:00,
2013-04-03 12:50:00,42.3,14.6,30.18,NNW,335,8.9,13.2,32,0.00,,CLR,0.00,VWS V14.00,2013-04-03 16:50:00,
2013-04-03 12:56:00,42.2,15.8,30.18,WNW,301,12.5,16.4,34,0.00,,CLR,0.00,VWS V14.00,2013-04-03 16:56:00,
2013-04-03 13:01:00,43.1,15.9,30.18,SW,214,6.9,12.6,33,0.00,,CLR,0.00,VWS V14.00,2013-04-03 17:01:00,
2013-04-03 13:06:00,43.1,15.9,30.18,WNW,303,6.9,15.3,33,0.00,,CLR,0.00,VWS V14.00,2013-04-03 17:06:00,
2013-04-03 13:12:00,43.6,16.5,30.18,WNW,288,12.1,18.0,33,0.00,,CLR,0.00,VWS V14.00,2013-04-03 17:12:00,
2013-04-03 13:17:00,43.3,16.1,30.18,West,267,11.1,15.8,33,0.00,,CLR,0.00,VWS V14.00,2013-04-03 17:17:00,
2013-04-03 13:22:00,43.6,16.5,30.18,WNW,292,9.1,12.1,33,0.00,,CLR,0.00,VWS V14.00,2013-04-03 17:22:00,
2013-04-03 13:27:00,43.6,16.5,30.18,West,274,9.1,15.3,33,0.00,,CLR,0.00,VWS V14.00,2013-04-03 17:27:00,
2013-04-03 13:32:00,44.0,16.8,30.18,West,266,9.1,15.8,33,0.00,,CLR,0.00,VWS V14.00,2013-04-03 17:32:00,
2013-04-03 13:37:00,44.6,17.3,30.18,WNW,300,6.9,9.9,33,0.00,,CLR,0.00,VWS V14.00,2013-04-03 17:37:00,
2013-04-03 13:42:00,44.2,16.2,30.18,WNW,286,9.6,10.5,32,0.00,,CLR,0.00,VWS V14.00,2013-04-03 17:42:00,
2013-04-03 13:47:00,44.6,16.5,30.18,North,353,9.6,15.3,32,0.00,,CLR,0.00,VWS V14.00,2013-04-03 17:47:00,
2013-04-03 13:52:00,44.4,15.7,30.18,WNW,295,6.4,9.9,31,0.00,,CLR,0.00,VWS V14.00,2013-04-03 17:52:00,
2013-04-03 13:57:00,44.8,16.7,30.18,WNW,303,15.5,16.9,32,0.00,,CLR,0.00,VWS V14.00,2013-04-03 17:57:00,
2013-04-03 14:02:00,45.9,17.7,30.18,WSW,252,6.9,9.1,32,0.00,,CLR,0.00,VWS V14.00,2013-04-03 18:02:00,
2013-04-03 14:07:00,45.5,17.4,30.18,NW,320,12.1,18.0,32,0.00,,CLR,0.00,VWS V14.00,2013-04-03 18:07:00,
2013-04-03 14:12:00,45.3,16.5,30.18,WNW,294,11.6,18.0,31,0.00,,CLR,0.00,VWS V14.00,2013-04-03 18:12:00,
2013-04-03 14:17:00,45.1,16.3,30.18,NW,322,6.4,9.9,31,0.00,,CLR,0.00,VWS V14.00,2013-04-03 18:17:00,
2013-04-03 14:23:00,44.9,16.1,30.18,WNW,288,8.9,16.9,31,0.00,,CLR,0.00,VWS V14.00,2013-04-03 18:23:00,
2013-04-03 14:28:00,47.0,18.7,30.18,WNW,287,17.0,19.6,32,0.00,,CLR,0.00,VWS V14.00,2013-04-03 18:28:00,
2013-04-03 14:33:00,46.4,17.4,30.18,NW,314,12.1,18.0,31,0.00,,CLR,0.00,VWS V14.00,2013-04-03 18:33:00,
2013-04-03 14:38:00,45.9,17.0,30.18,NW,314,19.2,20.9,31,0.00,,CLR,0.00,VWS V14.00,2013-04-03 18:38:00,
2013-04-03 14:43:00,45.7,16.0,30.18,NW,326,14.0,15.8,30,0.00,,CLR,0.00,VWS V14.00,2013-04-03 18:43:00,
2013-04-03 14:48:00,46.0,16.4,30.18,NNW,332,12.1,13.2,30,0.00,,CLR,0.00,VWS V14.00,2013-04-03 18:48:00,
2013-04-03 14:53:00,46.8,17.0,30.18,WNW,297,12.5,16.9,30,0.00,,CLR,0.00,VWS V14.00,2013-04-03 18:53:00,
2013-04-03 14:58:00,46.4,17.4,30.18,WNW,290,5.9,12.1,31,0.00,,CLR,0.00,VWS V14.00,2013-04-03 18:58:00,
2013-04-03 15:04:00,47.0,17.2,30.18,NW,314,11.6,15.8,30,0.00,,CLR,0.00,VWS V14.00,2013-04-03 19:04:00,
2013-04-03 15:09:00,47.2,18.1,30.18,West,269,11.6,12.6,31,0.00,,CLR,0.00,VWS V14.00,2013-04-03 19:09:00,
2013-04-03 15:14:00,46.6,16.9,30.18,NW,308,8.4,10.5,30,0.00,,CLR,0.00,VWS V14.00,2013-04-03 19:14:00,
2013-04-03 15:19:00,47.2,17.3,30.18,NW,317,12.1,13.7,30,0.00,,CLR,0.00,VWS V14.00,2013-04-03 19:19:00,
2013-04-03 15:24:00,47.0,17.2,30.18,WNW,289,6.4,9.9,30,0.00,,CLR,0.00,VWS V14.00,2013-04-03 19:24:00,
2013-04-03 15:29:00,47.0,16.4,30.18,NW,322,21.2,23.1,29,0.00,,CLR,0.00,VWS V14.00,2013-04-03 19:29:00,
2013-04-03 15:34:00,47.0,17.2,30.18,NW,316,14.5,15.8,30,0.00,,CLR,0.00,VWS V14.00,2013-04-03 19:34:00,
2013-04-03 15:39:00,47.0,16.4,30.18,NW,316,19.2,25.2,29,0.00,,CLR,0.00,VWS V14.00,2013-04-03 19:39:00,
2013-04-03 15:44:00,47.2,16.5,30.18,NNW,339,19.2,20.9,29,0.00,,CLR,0.00,VWS V14.00,2013-04-03 19:44:00,
2013-04-03 15:49:00,47.5,16.9,30.18,NW,324,17.0,20.9,29,0.00,,CLR,0.00,VWS V14.00,2013-04-03 19:49:00,
2013-04-03 15:55:00,46.6,16.1,30.18,North,349,17.0,18.5,29,0.00,,CLR,0.00,VWS V14.00,2013-04-03 19:55:00,
2013-04-03 16:00:00,47.2,16.5,30.18,NW,307,18.5,20.1,29,0.00,,CLR,0.00,VWS V14.00,2013-04-03 20:00:00,
2013-04-03 16:05:00,46.8,16.2,30.18,NW,326,9.1,12.6,29,0.00,,CLR,0.00,VWS V14.00,2013-04-03 20:05:00,
2013-04-03 16:10:00,46.4,15.9,30.18,NW,325,12.1,19.6,29,0.00,,CLR,0.00,VWS V14.00,2013-04-03 20:10:00,
2013-04-03 16:15:00,47.9,17.2,30.18,NW,320,9.1,12.6,29,0.00,,CLR,0.00,VWS V14.00,2013-04-03 20:15:00,
2013-04-03 16:20:00,48.1,17.4,30.18,West,271,5.9,9.1,29,0.00,,CLR,0.00,VWS V14.00,2013-04-03 20:20:00,
2013-04-03 16:25:00,47.9,17.2,30.18,NW,304,12.1,14.8,29,0.00,,CLR,0.00,VWS V14.00,2013-04-03 20:25:00,
2013-04-03 16:30:00,46.8,16.2,30.18,NW,312,11.6,18.0,29,0.00,,CLR,0.00,VWS V14.00,2013-04-03 20:30:00,
2013-04-03 16:35:00,46.6,16.1,30.21,WNW,299,20.2,22.0,29,0.00,,CLR,0.00,VWS V14.00,2013-04-03 20:35:00,
2013-04-03 16:40:00,47.0,16.4,30.21,NW,320,19.2,20.9,29,0.00,,CLR,0.00,VWS V14.00,2013-04-03 20:40:00,
2013-04-03 16:45:00,46.4,15.9,30.21,WNW,300,16.0,17.4,29,0.00,,CLR,0.00,VWS V14.00,2013-04-03 20:45:00,
2013-04-03 16:50:00,46.0,15.6,30.21,West,271,17.0,18.5,29,0.00,,CLR,0.00,VWS V14.00,2013-04-03 20:50:00,
2013-04-03 16:56:00,46.2,15.8,30.21,WNW,293,12.1,13.2,29,0.00,,CLR,0.00,VWS V14.00,2013-04-03 20:56:00,
2013-04-03 17:01:00,45.9,15.4,30.21,WNW,288,14.0,18.0,29,0.00,,CLR,0.00,VWS V14.00,2013-04-03 21:01:00,
2013-04-03 17:06:00,45.9,14.6,30.21,NW,322,7.9,8.6,28,0.00,,CLR,0.00,VWS V14.00,2013-04-03 21:06:00,
2013-04-03 17:11:00,46.8,16.2,30.21,NNW,327,14.0,20.4,29,0.00,,CLR,0.00,VWS V14.00,2013-04-03 21:11:00,
2013-04-03 17:16:00,47.0,16.4,30.21,WNW,288,17.5,19.1,29,0.00,,CLR,0.00,VWS V14.00,2013-04-03 21:16:00,
2013-04-03 17:21:00,47.0,16.4,30.21,West,267,11.1,17.4,29,0.00,,CLR,0.00,VWS V14.00,2013-04-03 21:21:00,
2013-04-03 17:27:00,47.3,16.7,30.21,WNW,301,13.5,14.8,29,0.00,,CLR,0.00,VWS V14.00,2013-04-03 21:27:00,
2013-04-03 17:32:00,46.6,16.1,30.21,WNW,303,6.9,9.7,29,0.00,,CLR,0.00,VWS V14.00,2013-04-03 21:32:00,
2013-04-03 17:37:00,46.6,16.1,30.21,NNW,333,16.5,19.6,29,0.00,,CLR,0.00,VWS V14.00,2013-04-03 21:37:00,
2013-04-03 17:42:00,45.9,15.4,30.21,NW,325,18.7,27.4,29,0.00,,CLR,0.00,VWS V14.00,2013-04-03 21:42:00,
2013-04-03 17:47:00,45.5,14.3,30.21,NNW,327,19.2,20.9,28,0.00,,CLR,0.00,VWS V14.00,2013-04-03 21:47:00,
2013-04-03 17:52:00,45.3,14.1,30.21,WNW,297,8.9,9.9,28,0.00,,CLR,0.00,VWS V14.00,2013-04-03 21:52:00,
2013-04-03 17:57:00,44.4,14.1,30.21,WSW,258,11.1,14.8,29,0.00,,CLR,0.00,VWS V14.00,2013-04-03 21:57:00,
2013-04-03 18:02:00,44.4,14.1,30.21,West,265,9.1,11.5,29,0.00,,CLR,0.00,VWS V14.00,2013-04-03 22:02:00,
2013-04-03 18:07:00,44.8,14.5,30.21,West,277,13.5,15.3,29,0.00,,CLR,0.00,VWS V14.00,2013-04-03 22:07:00,
2013-04-03 18:12:00,44.4,14.1,30.21,WNW,289,11.1,18.0,29,0.00,,CLR,0.00,VWS V14.00,2013-04-03 22:12:00,
2013-04-03 18:17:00,44.0,13.8,30.21,WNW,299,11.6,17.4,29,0.00,,CLR,0.00,VWS V14.00,2013-04-03 22:17:00,
2013-04-03 18:22:00,43.6,13.5,30.21,NW,306,17.0,20.4,29,0.00,,CLR,0.00,VWS V14.00,2013-04-03 22:22:00,
2013-04-03 18:27:00,43.5,13.3,30.21,West,262,8.9,9.7,29,0.00,,CLR,0.00,VWS V14.00,2013-04-03 22:27:00,
2013-04-03 18:32:00,42.9,12.9,30.21,WNW,293,11.6,14.2,29,0.00,,CLR,0.00,VWS V14.00,2013-04-03 22:32:00,
2013-04-03 18:37:00,42.9,12.9,30.21,WNW,299,11.1,12.6,29,0.00,,CLR,0.00,VWS V14.00,2013-04-03 22:37:00,
2013-04-03 18:42:00,42.5,12.5,30.21,WNW,295,15.0,18.0,29,0.00,,CLR,0.00,VWS V14.00,2013-04-03 22:42:00,
2013-04-03 18:47:00,42.9,12.9,30.21,NW,315,14.5,15.8,29,0.00,,CLR,0.00,VWS V14.00,2013-04-03 22:47:00,
2013-04-03 18:52:00,42.3,12.4,30.21,NW,326,11.1,12.6,29,0.00,,CLR,0.00,VWS V14.00,2013-04-03 22:52:00,
2013-04-03 18:58:00,42.2,12.2,30.21,West,279,13.0,14.8,29,0.00,,CLR,0.00,VWS V14.00,2013-04-03 22:58:00,
2013-04-03 19:03:00,42.0,12.8,30.21,NW,308,8.4,9.9,30,0.00,,CLR,0.00,VWS V14.00,2013-04-03 23:03:00,
2013-04-03 19:08:00,41.6,11.7,30.21,WNW,287,8.9,10.5,29,0.00,,CLR,0.00,VWS V14.00,2013-04-03 23:08:00,
2013-04-03 19:13:00,41.0,12.0,30.21,WNW,296,8.9,9.7,30,0.00,,CLR,0.00,VWS V14.00,2013-04-03 23:13:00,
2013-04-03 19:18:00,40.3,11.4,30.21,WNW,298,14.5,18.5,30,0.00,,CLR,0.00,VWS V14.00,2013-04-03 23:18:00,
2013-04-03 19:23:00,39.9,11.0,30.21,WNW,289,9.6,12.6,30,0.00,,CLR,0.00,VWS V14.00,2013-04-03 23:23:00,
2013-04-03 19:28:00,39.2,11.1,30.21,NW,310,9.6,11.0,31,0.00,,CLR,0.00,VWS V14.00,2013-04-03 23:28:00,
2013-04-03 19:33:00,38.8,10.8,30.21,WNW,301,9.1,11.0,31,0.00,,CLR,0.00,VWS V14.00,2013-04-03 23:33:00,
2013-04-03 19:38:00,38.3,10.3,30.21,North,357,3.0,7.0,31,0.00,,CLR,0.00,VWS V14.00,2013-04-03 23:38:00,
2013-04-03 19:43:00,38.3,9.6,30.21,NNW,344,8.9,9.7,30,0.00,,CLR,0.00,VWS V14.00,2013-04-03 23:43:00,
2013-04-03 19:48:00,38.3,9.6,30.21,NW,321,8.9,12.1,30,0.00,,CLR,0.00,VWS V14.00,2013-04-03 23:48:00,
2013-04-03 19:53:00,38.1,9.4,30.21,North,8,6.9,7.5,30,0.00,,CLR,0.00,VWS V14.00,2013-04-03 23:53:00,
2013-04-03 19:58:00,37.7,9.1,30.21,North,349,5.9,7.0,30,0.00,,CLR,0.00,VWS V14.00,2013-04-03 23:58:00,
2013-04-03 20:03:00,37.3,9.5,30.21,NNW,333,7.9,9.9,31,0.00,,CLR,0.00,VWS V14.00,2013-04-04 00:03:00,
2013-04-03 20:08:00,37.3,9.5,30.21,NNW,340,4.4,4.8,31,0.00,,CLR,0.00,VWS V14.00,2013-04-04 00:08:00,
2013-04-03 20:13:00,37.3,9.5,30.21,North,10,8.4,9.1,31,0.00,,CLR,0.00,VWS V14.00,2013-04-04 00:13:00,
2013-04-03 20:18:00,37.3,9.5,30.24,NNW,334,8.4,9.7,31,0.00,,CLR,0.00,VWS V14.00,2013-04-04 00:18:00,
2013-04-03 20:23:00,37.2,9.3,30.24,NNW,327,7.4,9.7,31,0.00,,CLR,0.00,VWS V14.00,2013-04-04 00:23:00,
2013-04-03 20:29:00,37.0,9.2,30.24,NNW,338,2.5,4.3,31,0.00,,CLR,0.00,VWS V14.00,2013-04-04 00:29:00,
2013-04-03 20:34:00,36.8,9.0,30.24,SE,144,3.9,4.3,31,0.00,,CLR,0.00,VWS V14.00,2013-04-04 00:34:00,
2013-04-03 20:39:00,36.4,8.7,30.24,NNW,337,3.0,3.8,31,0.00,,CLR,0.00,VWS V14.00,2013-04-04 00:39:00,
2013-04-03 20:44:00,36.2,8.5,30.24,NNW,344,0.0,0.0,31,0.00,,CLR,0.00,VWS V14.00,2013-04-04 00:44:00,
2013-04-03 20:49:00,36.2,8.5,30.21,North,353,2.5,3.2,31,0.00,,CLR,0.00,VWS V14.00,2013-04-04 00:49:00,
2013-04-03 20:54:00,36.2,8.5,30.21,East,88,6.4,7.0,31,0.00,,CLR,0.00,VWS V14.00,2013-04-04 00:54:00,
2013-04-03 20:59:00,36.2,8.5,30.21,NE,34,3.4,3.8,31,0.00,,CLR,0.00,VWS V14.00,2013-04-04 00:59:00,
2013-04-03 21:05:00,36.0,8.4,30.21,ENE,71,2.5,2.7,31,0.00,,CLR,0.00,VWS V14.00,2013-04-04 01:05:00,
2013-04-03 21:10:00,35.8,8.2,30.21,ENE,78,0.0,2.7,31,0.00,,CLR,0.00,VWS V14.00,2013-04-04 01:10:00,
2013-04-03 21:15:00,35.8,8.2,30.21,East,92,3.4,3.8,31,0.00,,CLR,0.00,VWS V14.00,2013-04-04 01:15:00,
2013-04-03 21:20:00,35.7,8.7,30.21,ESE,110,3.4,3.8,32,0.00,,CLR,0.00,VWS V14.00,2013-04-04 01:20:00,
2013-04-03 21:25:00,35.3,8.4,30.21,ESE,119,5.4,6.4,32,0.00,,CLR,0.00,VWS V14.00,2013-04-04 01:25:00,
2013-04-03 21:30:00,35.1,8.9,30.21,ESE,110,0.0,2.7,33,0.00,,CLR,0.00,VWS V14.00,2013-04-04 01:30:00,
2013-04-03 21:35:00,34.9,8.8,30.24,ESE,110,2.5,2.7,33,0.00,,CLR,0.00,VWS V14.00,2013-04-04 01:35:00,
2013-04-03 21:40:00,34.9,8.8,30.24,North,357,5.9,7.0,33,0.00,,CLR,0.00,VWS V14.00,2013-04-04 01:40:00,
2013-04-03 21:45:00,34.9,8.8,30.24,ENE,71,0.0,3.2,33,0.00,,CLR,0.00,VWS V14.00,2013-04-04 01:45:00,
2013-04-03 21:50:00,34.7,8.6,30.24,SE,132,0.0,0.0,33,0.00,,CLR,0.00,VWS V14.00,2013-04-04 01:50:00,
2013-04-03 21:55:00,34.7,7.9,30.24,SE,132,2.5,3.2,32,0.00,,CLR,0.00,VWS V14.00,2013-04-04 01:55:00,
2013-04-03 22:00:00,34.6,7.7,30.24,SE,132,2.5,2.7,32,0.00,,CLR,0.00,VWS V14.00,2013-04-04 02:00:00,
2013-04-03 22:05:00,34.4,7.6,30.24,East,84,2.5,2.7,32,0.00,,CLR,0.00,VWS V14.00,2013-04-04 02:05:00,
2013-04-03 22:10:00,34.2,8.1,30.24,East,83,3.4,3.8,33,0.00,,CLR,0.00,VWS V14.00,2013-04-04 02:10:00,
2013-04-03 22:15:00,34.0,7.9,30.24,East,83,0.0,0.0,33,0.00,,CLR,0.00,VWS V14.00,2013-04-04 02:15:00,
2013-04-03 22:20:00,33.8,7.8,30.24,ENE,78,2.5,2.7,33,0.00,,CLR,0.00,VWS V14.00,2013-04-04 02:20:00,
2013-04-03 22:25:00,34.0,7.9,30.24,ENE,78,0.0,2.7,33,0.00,,CLR,0.00,VWS V14.00,2013-04-04 02:25:00,
2013-04-03 22:30:00,33.8,7.8,30.24,East,94,2.5,2.7,33,0.00,,CLR,0.00,VWS V14.00,2013-04-04 02:30:00,
2013-04-03 22:35:00,34.0,7.9,30.24,East,94,0.0,0.0,33,0.00,,CLR,0.00,VWS V14.00,2013-04-04 02:35:00,
2013-04-03 22:40:00,34.0,7.9,30.24,East,94,3.0,3.2,33,0.00,,CLR,0.00,VWS V14.00,2013-04-04 02:40:00,
2013-04-03 22:45:00,33.6,7.6,30.24,East,94,0.0,0.0,33,0.00,,CLR,0.00,VWS V14.00,2013-04-04 02:45:00,
2013-04-03 22:51:00,33.6,7.6,30.24,East,94,3.0,3.2,33,0.00,,CLR,0.00,VWS V14.00,2013-04-04 02:51:00,
2013-04-03 22:56:00,33.3,7.3,30.24,East,94,0.0,0.0,33,0.00,,CLR,0.00,VWS V14.00,2013-04-04 02:56:00,
2013-04-03 23:01:00,33.1,7.1,30.24,East,94,0.0,3.2,33,0.00,,CLR,0.00,VWS V14.00,2013-04-04 03:01:00,
2013-04-03 23:06:00,32.7,7.4,30.24,East,94,0.0,0.0,34,0.00,,CLR,0.00,VWS V14.00,2013-04-04 03:06:00,
2013-04-03 23:11:00,32.5,7.3,30.24,East,94,0.0,0.0,34,0.00,,CLR,0.00,VWS V14.00,2013-04-04 03:11:00,
2013-04-03 23:16:00,32.5,7.3,30.24,East,94,0.0,0.0,34,0.00,,CLR,0.00,VWS V14.00,2013-04-04 03:16:00,
2013-04-03 23:21:00,32.3,7.1,30.24,SE,125,3.0,3.8,34,0.00,,CLR,0.00,VWS V14.00,2013-04-04 03:21:00,
2013-04-03 23:26:00,32.0,6.8,30.24,SE,125,0.0,0.0,34,0.00,,CLR,0.00,VWS V14.00,2013-04-04 03:26:00,
2013-04-03 23:31:00,31.8,6.6,30.24,SE,125,0.0,0.0,34,0.00,,CLR,0.00,VWS V14.00,2013-04-04 03:31:00,
2013-04-03 23:36:00,31.6,6.5,30.27,SE,125,0.0,0.0,34,0.00,,CLR,0.00,VWS V14.00,2013-04-04 03:36:00,
2013-04-03 23:41:00,31.4,6.3,30.27,SE,125,0.0,0.0,34,0.00,,CLR,0.00,VWS V14.00,2013-04-04 03:41:00,
2013-04-03 23:46:00,31.4,6.3,30.27,SE,125,2.5,3.2,34,0.00,,CLR,0.00,VWS V14.00,2013-04-04 03:46:00,
2013-04-03 23:52:00,31.0,6.6,30.27,SE,125,2.5,2.7,35,0.00,,CLR,0.00,VWS V14.00,2013-04-04 03:52:00,
2013-04-03 23:57:00,30.9,6.4,30.27,SE,125,0.0,3.2,35,0.00,,CLR,0.00,VWS V14.00,2013-04-04 03:57:00,